createdAt,value
2022-08-25T00:00:30.971Z,23.88
2022-08-25T00:01:30.993Z,23.94
2022-08-25T00:02:31.010Z,23.97
2022-08-25T00:03:35.967Z,23.93
2022-08-25T00:04:30.979Z,23.95
2022-08-25T00:05:33.373Z,23.84
2022-08-25T00:06:30.984Z,23.90
2022-08-25T00:07:30.987Z,23.85
2022-08-25T00:08:30.990Z,23.83
2022-08-25T00:09:30.992Z,23.85
2022-08-25T00:10:30.991Z,23.80
2022-08-25T00:11:30.996Z,23.83
2022-08-25T00:12:30.997Z,23.83
2022-08-25T00:13:31.001Z,23.83
2022-08-25T00:14:31.003Z,23.83
2022-08-25T00:15:31.069Z,23.83
2022-08-25T00:16:31.003Z,23.79
2022-08-25T00:17:31.011Z,23.83
2022-08-25T00:18:31.008Z,23.85
2022-08-25T00:19:31.013Z,23.75
2022-08-25T00:20:31.014Z,23.73
2022-08-25T00:21:31.018Z,23.83
2022-08-25T00:22:31.023Z,23.78
2022-08-25T00:23:31.026Z,23.78
2022-08-25T00:24:31.029Z,23.68
2022-08-25T00:25:31.035Z,23.72
2022-08-25T00:26:31.026Z,23.79
2022-08-25T00:27:31.034Z,23.76
2022-08-25T00:28:31.040Z,23.85
2022-08-25T00:29:31.042Z,23.75
2022-08-25T00:30:31.038Z,23.78
2022-08-25T00:31:38.352Z,23.76
2022-08-25T00:32:31.043Z,23.72
2022-08-25T00:33:31.047Z,23.75
2022-08-25T00:34:31.049Z,23.72
2022-08-25T00:35:31.054Z,23.72
2022-08-25T00:36:31.058Z,23.72
2022-08-25T00:37:31.059Z,23.70
2022-08-25T00:38:31.055Z,23.76
2022-08-25T00:39:31.062Z,23.66
2022-08-25T00:40:31.147Z,23.70
2022-08-25T00:41:31.069Z,23.68
2022-08-25T00:42:31.066Z,23.72
2022-08-25T00:43:31.066Z,23.69
2022-08-25T00:44:31.067Z,23.68
2022-08-25T00:45:31.072Z,23.73
2022-08-25T00:46:31.157Z,23.73
2022-08-25T00:47:31.076Z,23.69
2022-08-25T00:48:31.077Z,23.69
2022-08-25T00:49:31.082Z,23.63
2022-08-25T00:50:31.082Z,23.61
2022-08-25T00:51:31.085Z,23.61
2022-08-25T00:52:31.089Z,23.65
2022-08-25T00:53:31.091Z,23.61
2022-08-25T00:54:31.097Z,23.61
2022-08-25T00:55:31.097Z,23.61
2022-08-25T00:56:31.098Z,23.55
2022-08-25T00:57:34.146Z,23.63
2022-08-25T00:58:31.102Z,23.57
2022-08-25T00:59:31.105Z,23.58
2022-08-25T01:00:31.103Z,23.57
2022-08-25T01:01:31.211Z,23.58
2022-08-25T01:02:31.153Z,23.50
2022-08-25T01:03:33.070Z,23.55
2022-08-25T01:04:31.114Z,23.53
2022-08-25T01:05:31.112Z,23.50
2022-08-25T01:06:31.120Z,23.50
2022-08-25T01:07:31.117Z,23.50
2022-08-25T01:08:32.126Z,23.50
2022-08-25T01:09:31.122Z,23.54
2022-08-25T01:10:31.122Z,23.47
2022-08-25T01:11:31.129Z,23.50
2022-08-25T01:12:31.127Z,23.47
2022-08-25T01:13:31.134Z,23.48
2022-08-25T01:14:31.137Z,23.50
2022-08-25T01:15:31.206Z,23.48
2022-08-25T01:16:31.145Z,23.46
2022-08-25T01:17:31.140Z,23.51
2022-08-25T01:18:31.141Z,23.47
2022-08-25T01:19:31.148Z,23.42
2022-08-25T01:20:31.144Z,23.43
2022-08-25T01:21:31.151Z,23.43
2022-08-25T01:22:31.155Z,23.46
2022-08-25T01:23:31.150Z,23.48
2022-08-25T01:24:31.153Z,23.47
2022-08-25T01:25:31.155Z,23.39
2022-08-25T01:26:31.190Z,23.48
2022-08-25T01:27:31.161Z,23.39
2022-08-25T01:28:31.159Z,23.39
2022-08-25T01:29:31.161Z,23.43
2022-08-25T01:30:31.326Z,23.39
2022-08-25T01:31:31.193Z,23.42
2022-08-25T01:32:31.172Z,23.38
2022-08-25T01:33:31.177Z,23.43
2022-08-25T01:34:31.176Z,23.36
2022-08-25T01:35:31.179Z,23.47
2022-08-25T01:36:31.181Z,23.38
2022-08-25T01:37:31.181Z,23.38
2022-08-25T01:38:31.184Z,23.38
2022-08-25T01:39:31.182Z,23.36
2022-08-25T01:40:31.275Z,23.31
2022-08-25T01:41:31.189Z,23.35
2022-08-25T01:42:31.195Z,23.35
2022-08-25T01:43:31.193Z,23.31
2022-08-25T01:44:31.197Z,23.38
2022-08-25T01:45:31.195Z,23.33
2022-08-25T01:46:31.238Z,23.33
2022-08-25T01:47:31.203Z,23.32
2022-08-25T01:48:31.202Z,23.28
2022-08-25T01:49:31.201Z,23.36
2022-08-25T01:50:31.206Z,23.32
2022-08-25T01:51:31.205Z,23.27
2022-08-25T01:52:31.210Z,23.35
2022-08-25T01:53:33.330Z,23.32
2022-08-25T01:54:31.215Z,23.32
2022-08-25T01:55:31.215Z,23.35
2022-08-25T01:56:31.221Z,23.32
2022-08-25T01:57:31.218Z,23.33
2022-08-25T01:58:31.223Z,23.25
2022-08-25T01:59:31.228Z,23.28
2022-08-25T02:00:31.228Z,23.32
2022-08-25T02:01:31.307Z,23.28
2022-08-25T02:02:31.617Z,23.25
2022-08-25T02:03:31.230Z,23.22
2022-08-25T02:04:31.237Z,23.33
2022-08-25T02:05:31.234Z,23.32
2022-08-25T02:06:31.239Z,23.25
2022-08-25T02:07:31.349Z,23.31
2022-08-25T02:08:31.241Z,23.23
2022-08-25T02:09:31.246Z,23.33
2022-08-25T02:10:31.247Z,23.27
2022-08-25T02:11:31.249Z,23.27
2022-08-25T02:12:31.280Z,23.32
2022-08-25T02:13:31.586Z,23.25
2022-08-25T02:14:31.255Z,23.27
2022-08-25T02:15:31.257Z,23.23
2022-08-25T02:16:31.319Z,23.23
2022-08-25T02:17:31.267Z,23.28
2022-08-25T02:18:31.262Z,23.35
2022-08-25T02:19:31.266Z,23.16
2022-08-25T02:20:31.265Z,23.28
2022-08-25T02:21:31.269Z,23.22
2022-08-25T02:22:31.273Z,23.31
2022-08-25T02:23:31.270Z,23.23
2022-08-25T02:24:31.273Z,23.13
2022-08-25T02:25:31.276Z,23.27
2022-08-25T02:26:31.280Z,23.23
2022-08-25T02:27:31.283Z,23.17
2022-08-25T02:28:31.284Z,23.23
2022-08-25T02:29:31.284Z,23.20
2022-08-25T02:30:31.311Z,23.13
2022-08-25T02:31:31.285Z,23.23
2022-08-25T02:32:31.292Z,23.28
2022-08-25T02:33:31.300Z,23.19
2022-08-25T02:34:31.294Z,23.23
2022-08-25T02:35:31.294Z,23.32
2022-08-25T02:36:31.298Z,23.23
2022-08-25T02:37:31.299Z,23.16
2022-08-25T02:38:31.307Z,23.22
2022-08-25T02:39:31.303Z,23.16
2022-08-25T02:40:31.346Z,23.28
2022-08-25T02:41:31.806Z,23.09
2022-08-25T02:42:31.306Z,23.33
2022-08-25T02:43:31.309Z,23.12
2022-08-25T02:44:31.314Z,23.20
2022-08-25T02:45:31.463Z,23.17
2022-08-25T02:46:31.318Z,23.09
2022-08-25T02:47:31.315Z,23.19
2022-08-25T02:48:31.320Z,23.22
2022-08-25T02:49:31.316Z,23.17
2022-08-25T02:50:31.324Z,23.20
2022-08-25T02:51:31.327Z,23.17
2022-08-25T02:52:31.328Z,23.12
2022-08-25T02:53:31.333Z,23.16
2022-08-25T02:54:31.332Z,23.22
2022-08-25T02:55:31.657Z,23.20
2022-08-25T02:56:31.332Z,23.10
2022-08-25T02:57:31.337Z,23.10
2022-08-25T02:58:31.342Z,23.13
2022-08-25T02:59:31.340Z,23.13
2022-08-25T03:00:31.347Z,23.12
2022-08-25T03:01:31.440Z,23.12
2022-08-25T03:02:31.345Z,23.04
2022-08-25T03:03:31.346Z,23.04
2022-08-25T03:04:31.410Z,23.04
2022-08-25T03:05:31.355Z,23.02
2022-08-25T03:06:31.359Z,23.04
2022-08-25T03:07:31.360Z,23.09
2022-08-25T03:08:31.358Z,23.01
2022-08-25T03:09:31.357Z,23.02
2022-08-25T03:10:31.365Z,23.00
2022-08-25T03:11:31.368Z,23.04
2022-08-25T03:12:31.366Z,23.01
2022-08-25T03:13:31.370Z,23.02
2022-08-25T03:14:31.367Z,23.04
2022-08-25T03:15:31.374Z,22.98
2022-08-25T03:16:31.410Z,23.04
2022-08-25T03:17:31.380Z,23.04
2022-08-25T03:18:31.372Z,23.01
2022-08-25T03:19:31.383Z,23.09
2022-08-25T03:20:31.381Z,23.04
2022-08-25T03:21:31.382Z,22.98
2022-08-25T03:22:31.385Z,23.05
2022-08-25T03:23:31.386Z,22.98
2022-08-25T03:24:31.385Z,23.00
2022-08-25T03:25:31.388Z,23.04
2022-08-25T03:26:31.390Z,23.07
2022-08-25T03:27:31.392Z,23.04
2022-08-25T03:28:31.401Z,23.02
2022-08-25T03:29:31.397Z,23.00
2022-08-25T03:30:31.412Z,23.00
2022-08-25T03:31:31.586Z,22.97
2022-08-25T03:32:31.407Z,23.00
2022-08-25T03:33:31.409Z,22.92
2022-08-25T03:34:31.411Z,22.94
2022-08-25T03:35:31.415Z,22.90
2022-08-25T03:36:31.418Z,22.92
2022-08-25T03:37:31.416Z,22.90
2022-08-25T03:38:31.422Z,22.88
2022-08-25T03:39:31.423Z,22.92
2022-08-25T03:40:31.476Z,22.92
2022-08-25T03:41:31.428Z,22.91
2022-08-25T03:42:31.429Z,22.86
2022-08-25T03:43:31.428Z,22.91
2022-08-25T03:44:31.434Z,22.85
2022-08-25T03:45:31.475Z,22.82
2022-08-25T03:46:31.434Z,22.86
2022-08-25T03:47:31.436Z,22.83
2022-08-25T03:48:31.441Z,22.80
2022-08-25T03:49:31.445Z,22.83
2022-08-25T03:50:31.445Z,22.90
2022-08-25T03:51:31.447Z,22.82
2022-08-25T03:52:31.445Z,22.83
2022-08-25T03:53:31.446Z,22.85
2022-08-25T03:54:31.452Z,22.85
2022-08-25T03:55:31.450Z,22.85
2022-08-25T03:56:31.449Z,22.86
2022-08-25T03:57:31.442Z,22.79
2022-08-25T03:58:31.448Z,22.77
2022-08-25T03:59:31.452Z,22.79
2022-08-25T04:00:31.451Z,22.80
2022-08-25T04:01:31.520Z,22.85
2022-08-25T04:02:31.536Z,22.80
2022-08-25T04:03:31.457Z,22.82
2022-08-25T04:04:31.457Z,22.85
2022-08-25T04:05:31.465Z,22.86
2022-08-25T04:06:31.462Z,22.82
2022-08-25T04:07:31.463Z,22.76
2022-08-25T04:08:31.471Z,22.80
2022-08-25T04:09:34.135Z,22.82
2022-08-25T04:10:31.470Z,22.80
2022-08-25T04:11:31.472Z,22.80
2022-08-25T04:12:31.470Z,22.76
2022-08-25T04:13:31.473Z,22.72
2022-08-25T04:14:31.479Z,22.75
2022-08-25T04:15:31.476Z,22.68
2022-08-25T04:16:31.652Z,22.73
2022-08-25T04:17:31.481Z,22.77
2022-08-25T04:18:31.488Z,22.75
2022-08-25T04:19:31.480Z,22.75
2022-08-25T04:20:31.489Z,22.72
2022-08-25T04:21:31.490Z,22.73
2022-08-25T04:22:31.493Z,22.75
2022-08-25T04:23:31.491Z,22.79
2022-08-25T04:24:31.494Z,22.77
2022-08-25T04:25:31.497Z,22.86
2022-08-25T04:26:31.501Z,22.85
2022-08-25T04:27:31.501Z,22.91
2022-08-25T04:28:31.503Z,22.91
2022-08-25T04:29:31.500Z,22.91
2022-08-25T04:30:31.507Z,22.91
2022-08-25T04:31:31.574Z,22.94
2022-08-25T04:32:31.506Z,22.94
2022-08-25T04:33:31.515Z,23.01
2022-08-25T04:34:31.663Z,22.97
2022-08-25T04:35:31.514Z,22.98
2022-08-25T04:36:31.515Z,22.95
2022-08-25T04:37:31.517Z,22.90
2022-08-25T04:38:31.520Z,22.85
2022-08-25T04:39:31.518Z,22.97
2022-08-25T04:40:31.572Z,23.01
2022-08-25T04:41:31.533Z,23.01
2022-08-25T04:42:31.529Z,22.97
2022-08-25T04:43:31.525Z,23.00
2022-08-25T04:44:31.530Z,23.01
2022-08-25T04:45:31.584Z,23.07
2022-08-25T04:46:31.534Z,23.00
2022-08-25T04:47:31.534Z,23.15
2022-08-25T04:48:31.542Z,23.09
2022-08-25T04:49:31.537Z,23.12
2022-08-25T04:50:31.538Z,23.07
2022-08-25T04:51:31.546Z,23.10
2022-08-25T04:52:31.545Z,23.13
2022-08-25T04:53:31.547Z,23.15
2022-08-25T04:54:37.317Z,23.13
2022-08-25T04:55:31.551Z,23.20
2022-08-25T04:56:31.551Z,23.31
2022-08-25T04:57:31.552Z,23.22
2022-08-25T04:58:31.559Z,23.19
2022-08-25T04:59:31.558Z,23.25
2022-08-25T05:00:31.562Z,23.28
2022-08-25T05:01:31.562Z,23.23
2022-08-25T05:02:31.562Z,23.36
2022-08-25T05:03:31.570Z,23.32
2022-08-25T05:04:31.616Z,23.35
2022-08-25T05:05:31.567Z,23.35
2022-08-25T05:06:31.569Z,23.35
2022-08-25T05:07:31.574Z,23.35
2022-08-25T05:08:31.569Z,23.32
2022-08-25T05:09:32.485Z,23.36
2022-08-25T05:10:31.575Z,23.36
2022-08-25T05:11:31.586Z,23.38
2022-08-25T05:12:31.584Z,23.47
2022-08-25T05:13:31.584Z,23.32
2022-08-25T05:14:31.599Z,23.39
2022-08-25T05:15:31.590Z,23.40
2022-08-25T05:16:31.655Z,23.47
2022-08-25T05:17:31.585Z,23.46
2022-08-25T05:18:31.594Z,23.43
2022-08-25T05:19:31.592Z,23.38
2022-08-25T05:20:31.600Z,23.38
2022-08-25T05:21:31.597Z,23.47
2022-08-25T05:22:31.603Z,23.43
2022-08-25T05:23:31.601Z,23.46
2022-08-25T05:24:31.608Z,23.43
2022-08-25T05:25:31.604Z,23.35
2022-08-25T05:26:31.606Z,23.32
2022-08-25T05:27:31.611Z,23.32
2022-08-25T05:28:31.614Z,23.38
2022-08-25T05:29:31.614Z,23.35
2022-08-25T05:30:31.615Z,23.32
2022-08-25T05:31:31.681Z,23.35
2022-08-25T05:32:31.622Z,23.32
2022-08-25T05:33:32.974Z,23.33
2022-08-25T05:34:31.626Z,23.22
2022-08-25T05:35:31.627Z,23.31
2022-08-25T05:36:31.632Z,23.25
2022-08-25T05:37:31.633Z,23.20
2022-08-25T05:38:31.632Z,23.32
2022-08-25T05:39:31.631Z,23.38
2022-08-25T05:40:31.701Z,23.36
2022-08-25T05:41:31.640Z,23.43
2022-08-25T05:42:31.643Z,23.47
2022-08-25T05:43:31.645Z,23.40
2022-08-25T05:44:31.643Z,23.38
2022-08-25T05:45:31.685Z,23.46
2022-08-25T05:46:32.016Z,23.51
2022-08-25T05:47:31.651Z,23.51
2022-08-25T05:48:31.651Z,23.60
2022-08-25T05:49:31.656Z,23.60
2022-08-25T05:50:31.658Z,23.63
2022-08-25T05:51:31.659Z,23.73
2022-08-25T05:52:31.663Z,23.70
2022-08-25T05:53:34.144Z,23.73
2022-08-25T05:54:31.667Z,23.83
2022-08-25T05:55:31.665Z,23.78
2022-08-25T05:56:31.667Z,23.78
2022-08-25T05:57:31.670Z,23.78
2022-08-25T05:58:31.670Z,23.84
2022-08-25T05:59:31.678Z,23.88
2022-08-25T06:00:31.675Z,23.79
2022-08-25T06:01:31.788Z,23.91
2022-08-25T06:02:31.679Z,23.88
2022-08-25T06:03:31.741Z,23.83
2022-08-25T06:04:31.684Z,23.93
2022-08-25T06:05:31.690Z,23.94
2022-08-25T06:06:31.692Z,23.98
2022-08-25T06:07:31.693Z,24.13
2022-08-25T06:08:31.693Z,24.12
2022-08-25T06:09:31.697Z,24.12
2022-08-25T06:10:31.700Z,24.24
2022-08-25T06:11:31.699Z,24.28
2022-08-25T06:12:31.702Z,24.28
2022-08-25T06:13:31.705Z,24.31
2022-08-25T06:14:31.705Z,24.39
2022-08-25T06:15:31.710Z,24.35
2022-08-25T06:16:31.824Z,24.32
2022-08-25T06:17:31.714Z,24.39
2022-08-25T06:18:31.717Z,24.34
2022-08-25T06:19:31.716Z,24.31
2022-08-25T06:20:31.721Z,24.35
2022-08-25T06:21:31.721Z,24.43
2022-08-25T06:22:31.723Z,24.45
2022-08-25T06:23:31.732Z,24.40
2022-08-25T06:24:31.728Z,24.37
2022-08-25T06:25:31.732Z,24.37
2022-08-25T06:26:31.730Z,24.46
2022-08-25T06:27:31.740Z,24.46
2022-08-25T06:28:31.739Z,24.47
2022-08-25T06:29:31.740Z,24.53
2022-08-25T06:30:31.743Z,24.53
2022-08-25T06:31:31.811Z,24.57
2022-08-25T06:32:31.748Z,24.52
2022-08-25T06:33:31.749Z,24.53
2022-08-25T06:34:31.751Z,24.53
2022-08-25T06:35:31.756Z,24.50
2022-08-25T06:36:31.755Z,24.58
2022-08-25T06:37:31.758Z,24.67
2022-08-25T06:38:31.760Z,24.69
2022-08-25T06:39:31.782Z,24.64
2022-08-25T06:40:31.813Z,24.67
2022-08-25T06:41:36.891Z,24.84
2022-08-25T06:42:31.773Z,24.80
2022-08-25T06:43:31.773Z,24.65
2022-08-25T06:44:31.782Z,24.84
2022-08-25T06:45:31.776Z,24.83
2022-08-25T06:46:36.244Z,24.84
2022-08-25T06:47:31.788Z,24.81
2022-08-25T06:48:31.781Z,24.81
2022-08-25T06:49:34.271Z,24.90
2022-08-25T06:50:31.792Z,24.96
2022-08-25T06:51:31.803Z,25.00
2022-08-25T06:52:31.803Z,25.00
2022-08-25T06:53:31.797Z,25.15
2022-08-25T06:54:31.801Z,25.06
2022-08-25T06:55:31.802Z,25.06
2022-08-25T06:56:31.905Z,25.08
2022-08-25T06:57:31.808Z,25.13
2022-08-25T06:58:31.808Z,25.10
2022-08-25T06:59:32.147Z,25.15
2022-08-25T07:00:32.017Z,25.13
2022-08-25T07:01:32.157Z,25.10
2022-08-25T07:02:31.859Z,25.03
2022-08-25T07:03:31.822Z,25.08
2022-08-25T07:04:31.829Z,25.17
2022-08-25T07:05:43.417Z,25.20
2022-08-25T07:06:31.831Z,25.14
2022-08-25T07:07:42.993Z,25.14
2022-08-25T07:08:31.836Z,25.23
2022-08-25T07:09:33.631Z,25.15
2022-08-25T07:10:31.844Z,25.10
2022-08-25T07:11:31.841Z,25.18
2022-08-25T07:12:31.849Z,25.15
2022-08-25T07:13:31.850Z,25.24
2022-08-25T07:14:31.851Z,25.21
2022-08-25T07:15:31.859Z,25.27
2022-08-25T07:16:31.916Z,25.43
2022-08-25T07:17:31.863Z,25.39
2022-08-25T07:18:31.866Z,25.27
2022-08-25T07:19:31.867Z,25.28
2022-08-25T07:20:31.870Z,25.32
2022-08-25T07:21:33.663Z,25.36
2022-08-25T07:22:31.871Z,25.33
2022-08-25T07:23:31.876Z,25.52
2022-08-25T07:24:31.882Z,25.57
2022-08-25T07:25:31.881Z,25.47
2022-08-25T07:26:37.608Z,25.55
2022-08-25T07:27:31.889Z,25.65
2022-08-25T07:28:31.892Z,25.65
2022-08-25T07:29:33.271Z,25.70
2022-08-25T07:30:31.895Z,25.73
2022-08-25T07:31:31.983Z,25.69
2022-08-25T07:32:31.900Z,25.69
2022-08-25T07:33:31.914Z,25.76
2022-08-25T07:34:31.907Z,25.77
2022-08-25T07:35:37.395Z,25.82
2022-08-25T07:36:31.916Z,25.82
2022-08-25T07:37:47.906Z,25.97
2022-08-25T07:38:31.920Z,25.85
2022-08-25T07:39:31.931Z,25.97
2022-08-25T07:40:32.044Z,25.99
2022-08-25T07:41:31.930Z,25.95
2022-08-25T07:42:31.935Z,25.98
2022-08-25T07:43:31.936Z,25.92
2022-08-25T07:44:31.941Z,26.09
2022-08-25T07:45:31.946Z,25.95
2022-08-25T07:46:32.017Z,25.95
2022-08-25T07:47:31.960Z,26.10
2022-08-25T07:48:31.950Z,26.10
2022-08-25T07:49:35.821Z,26.07
2022-08-25T07:50:31.956Z,26.17
2022-08-25T07:51:31.963Z,26.18
2022-08-25T07:52:31.965Z,26.28
2022-08-25T07:53:31.973Z,26.45
2022-08-25T07:54:33.809Z,26.52
2022-08-25T07:55:31.978Z,26.58
2022-08-25T07:56:31.976Z,26.62
2022-08-25T07:57:31.982Z,26.65
2022-08-25T07:58:31.990Z,26.60
2022-08-25T07:59:39.243Z,26.66
2022-08-25T08:00:31.991Z,26.60
2022-08-25T08:01:32.067Z,26.57
2022-08-25T08:02:32.036Z,26.66
2022-08-25T08:03:45.092Z,26.73
2022-08-25T08:04:32.005Z,26.70
2022-08-25T08:05:32.011Z,26.75
2022-08-25T08:06:32.013Z,26.80
2022-08-25T08:07:43.272Z,26.92
2022-08-25T08:08:32.580Z,26.97
2022-08-25T08:09:32.018Z,27.04
2022-08-25T08:11:32.034Z,27.25
2022-08-25T08:12:32.034Z,27.40
2022-08-25T08:13:32.037Z,27.51
2022-08-25T08:14:32.038Z,27.70
2022-08-25T08:15:32.043Z,27.99
2022-08-25T08:16:32.081Z,28.14
2022-08-25T08:17:32.055Z,28.40
2022-08-25T08:18:32.055Z,28.86
2022-08-25T08:19:32.059Z,29.30
2022-08-25T08:20:32.069Z,29.95
2022-08-25T08:21:32.069Z,30.45
2022-08-25T08:22:32.071Z,30.83
2022-08-25T08:23:32.074Z,31.19
2022-08-25T08:24:44.726Z,31.39
2022-08-25T08:25:32.084Z,31.46
2022-08-25T08:26:55.346Z,31.43
2022-08-25T08:27:32.103Z,31.23
2022-08-25T08:28:32.114Z,31.16
2022-08-25T08:29:32.106Z,31.09
2022-08-25T08:30:32.112Z,31.04
2022-08-25T08:31:32.179Z,31.28
2022-08-25T08:32:53.008Z,31.63
2022-08-25T08:33:32.124Z,31.63
2022-08-25T08:34:32.135Z,31.70
2022-08-25T08:35:32.143Z,31.57
2022-08-25T08:36:32.141Z,31.44
2022-08-25T08:37:32.145Z,31.35
2022-08-25T08:38:32.157Z,30.99
2022-08-25T08:39:32.164Z,30.89
2022-08-25T08:40:32.233Z,30.70
2022-08-25T08:41:40.123Z,30.58
2022-08-25T08:42:32.180Z,30.46
2022-08-25T08:43:33.435Z,30.38
2022-08-25T08:44:32.188Z,30.47
2022-08-25T08:45:32.197Z,30.58
2022-08-25T08:46:32.218Z,30.65
2022-08-25T08:47:32.216Z,30.42
2022-08-25T08:48:32.216Z,30.42
2022-08-25T08:49:32.228Z,30.34
2022-08-25T08:50:33.038Z,30.23
2022-08-25T08:51:32.684Z,30.51
2022-08-25T08:52:32.239Z,30.70
2022-08-25T08:53:33.993Z,30.95
2022-08-25T08:54:34.026Z,31.10
2022-08-25T08:55:32.269Z,31.36
2022-08-25T08:56:32.271Z,31.26
2022-08-25T08:57:32.281Z,31.61
2022-08-25T08:58:32.281Z,31.84
2022-08-25T08:59:32.291Z,31.85
2022-08-25T09:00:32.300Z,31.91
2022-08-25T09:01:32.377Z,31.88
2022-08-25T09:02:39.396Z,31.76
2022-08-25T09:03:32.413Z,31.68
2022-08-25T09:04:32.328Z,31.84
2022-08-25T09:05:34.434Z,32.01
2022-08-25T09:06:32.346Z,32.11
2022-08-25T09:07:32.353Z,32.10
2022-08-25T09:08:32.366Z,32.28
2022-08-25T09:09:35.968Z,32.37
2022-08-25T09:10:32.379Z,32.32
2022-08-25T09:11:32.388Z,32.29
2022-08-25T09:12:32.395Z,32.03
2022-08-25T09:13:32.411Z,32.06
2022-08-25T09:14:32.410Z,32.01
2022-08-25T09:15:32.444Z,32.10
2022-08-25T09:16:34.458Z,32.03
2022-08-25T09:17:32.438Z,32.00
2022-08-25T09:18:32.444Z,31.75
2022-08-25T09:19:32.457Z,31.76
2022-08-25T09:20:32.462Z,31.89
2022-08-25T09:21:32.476Z,31.73
2022-08-25T09:22:33.839Z,31.72
2022-08-25T09:23:32.493Z,31.72
2022-08-25T09:24:32.499Z,32.32
2022-08-25T09:25:52.438Z,33.39
2022-08-25T09:26:32.520Z,33.93
2022-08-25T09:27:32.529Z,34.10
2022-08-25T09:28:32.537Z,34.87
2022-08-25T09:29:32.546Z,34.81
2022-08-25T09:30:32.558Z,35.66
2022-08-25T09:31:32.621Z,36.37
2022-08-25T09:32:32.578Z,36.84
2022-08-25T09:33:35.449Z,37.24
2022-08-25T09:34:32.601Z,37.09
2022-08-25T09:35:32.613Z,36.98
2022-08-25T09:36:37.243Z,36.80
2022-08-25T09:37:32.633Z,36.98
2022-08-25T09:38:32.646Z,36.83
2022-08-25T09:39:32.662Z,37.20
2022-08-25T09:40:32.766Z,37.56
2022-08-25T09:41:32.682Z,37.72
2022-08-25T09:42:32.692Z,38.31
2022-08-25T09:43:32.710Z,38.74
2022-08-25T09:44:32.914Z,39.17
2022-08-25T09:45:32.739Z,39.63
2022-08-25T09:46:32.781Z,39.66
2022-08-25T09:47:32.865Z,39.79
2022-08-25T09:48:36.566Z,39.88
2022-08-25T09:49:32.791Z,39.45
2022-08-25T09:50:34.991Z,39.62
2022-08-25T09:51:42.479Z,40.01
2022-08-25T09:52:32.832Z,40.45
2022-08-25T09:53:33.827Z,40.89
2022-08-25T09:54:44.126Z,41.37
2022-08-25T09:55:32.884Z,41.76
2022-08-25T09:56:32.898Z,42.24
2022-08-25T09:57:32.911Z,42.39
2022-08-25T09:58:32.926Z,42.42
2022-08-25T09:59:35.147Z,42.46
2022-08-25T10:00:32.962Z,42.25
2022-08-25T10:01:34.750Z,41.30
2022-08-25T10:02:32.998Z,40.60
2022-08-25T10:03:36.804Z,39.91
2022-08-25T10:04:33.027Z,39.50
2022-08-25T10:05:33.086Z,38.65
2022-08-25T10:06:33.068Z,38.46
2022-08-25T10:07:33.082Z,37.97
2022-08-25T10:08:33.102Z,37.69
2022-08-25T10:09:33.118Z,37.75
2022-08-25T10:10:33.132Z,37.55
2022-08-25T10:11:33.152Z,37.34
2022-08-25T10:12:33.168Z,36.94
2022-08-25T10:13:33.193Z,36.78
2022-08-25T10:14:33.204Z,36.83
2022-08-25T10:15:33.325Z,36.65
2022-08-25T10:16:36.510Z,36.38
2022-08-25T10:17:33.456Z,36.84
2022-08-25T10:18:33.273Z,37.72
2022-08-25T10:19:33.289Z,38.12
2022-08-25T10:20:35.313Z,37.78
2022-08-25T10:21:33.319Z,37.46
2022-08-25T10:22:33.340Z,36.47
2022-08-25T10:23:33.356Z,36.88
2022-08-25T10:24:33.371Z,37.44
2022-08-25T10:25:33.389Z,37.55
2022-08-25T10:26:35.103Z,37.81
2022-08-25T10:27:33.437Z,37.43
2022-08-25T10:28:33.441Z,36.80
2022-08-25T10:29:33.456Z,36.28
2022-08-25T10:30:33.531Z,36.13
2022-08-25T10:31:34.778Z,36.23
2022-08-25T10:32:33.521Z,36.00
2022-08-25T10:33:33.526Z,35.84
2022-08-25T10:34:35.642Z,35.94
2022-08-25T10:35:33.563Z,36.17
2022-08-25T10:36:33.579Z,36.12
2022-08-25T10:37:33.597Z,35.99
2022-08-25T10:38:36.187Z,36.07
2022-08-25T10:39:36.409Z,36.65
2022-08-25T10:40:33.729Z,36.78
2022-08-25T10:41:33.668Z,37.25
2022-08-25T10:42:33.681Z,38.07
2022-08-25T10:43:33.700Z,37.94
2022-08-25T10:44:33.718Z,37.49
2022-08-25T10:45:33.726Z,36.91
2022-08-25T10:46:33.796Z,36.31
2022-08-25T10:47:34.248Z,36.13
2022-08-25T10:48:33.779Z,35.96
2022-08-25T10:49:33.797Z,35.85
2022-08-25T10:50:33.816Z,36.16
2022-08-25T10:51:33.830Z,36.66
2022-08-25T10:52:33.853Z,36.85
2022-08-25T10:53:33.864Z,37.22
2022-08-25T10:54:33.881Z,37.70
2022-08-25T10:55:33.899Z,38.32
2022-08-25T10:56:33.914Z,38.37
2022-08-25T10:57:34.243Z,38.25
2022-08-25T10:58:33.951Z,38.12
2022-08-25T10:59:33.964Z,38.06
2022-08-25T11:00:33.988Z,37.44
2022-08-25T11:01:42.952Z,37.02
2022-08-25T11:02:34.023Z,36.62
2022-08-25T11:03:35.182Z,35.99
2022-08-25T11:04:34.059Z,35.22
2022-08-25T11:05:34.132Z,34.85
2022-08-25T11:06:34.086Z,34.61
2022-08-25T11:07:34.110Z,34.56
2022-08-25T11:08:34.119Z,35.21
2022-08-25T11:09:35.990Z,35.75
2022-08-25T11:10:34.155Z,36.43
2022-08-25T11:11:35.035Z,36.90
2022-08-25T11:12:34.186Z,36.95
2022-08-25T11:13:34.203Z,36.75
2022-08-25T11:14:34.743Z,37.13
2022-08-25T11:15:34.239Z,37.32
2022-08-25T11:16:34.312Z,37.21
2022-08-25T11:17:34.268Z,37.17
2022-08-25T11:18:34.287Z,37.31
2022-08-25T11:19:34.306Z,37.20
2022-08-25T11:20:34.320Z,36.93
2022-08-25T11:21:34.935Z,37.17
2022-08-25T11:22:34.358Z,36.76
2022-08-25T11:23:34.372Z,36.65
2022-08-25T11:24:36.089Z,36.75
2022-08-25T11:25:34.411Z,36.49
2022-08-25T11:26:36.972Z,36.12
2022-08-25T11:27:34.444Z,35.70
2022-08-25T11:28:34.469Z,35.52
2022-08-25T11:29:34.474Z,35.38
2022-08-25T11:30:34.554Z,35.28
2022-08-25T11:31:34.509Z,35.29
2022-08-25T11:32:34.522Z,35.23
2022-08-25T11:33:34.543Z,35.28
2022-08-25T11:34:34.559Z,35.50
2022-08-25T11:35:34.571Z,35.71
2022-08-25T11:36:34.589Z,36.20
2022-08-25T11:37:34.603Z,36.46
2022-08-25T11:38:34.618Z,37.10
2022-08-25T11:39:34.836Z,37.75
2022-08-25T11:40:34.660Z,38.30
2022-08-25T11:41:34.671Z,38.98
2022-08-25T11:42:34.694Z,39.48
2022-08-25T11:43:35.659Z,39.98
2022-08-25T11:44:34.721Z,40.13
2022-08-25T11:45:34.736Z,40.32
2022-08-25T11:46:34.860Z,40.03
2022-08-25T11:47:34.771Z,39.67
2022-08-25T11:48:34.788Z,39.38
2022-08-25T11:49:34.804Z,39.30
2022-08-25T11:50:35.146Z,39.50
2022-08-25T11:51:36.360Z,39.26
2022-08-25T11:52:35.138Z,39.30
2022-08-25T11:53:34.874Z,39.28
2022-08-25T11:54:34.894Z,39.40
2022-08-25T11:55:34.909Z,39.09
2022-08-25T11:56:34.931Z,39.30
2022-08-25T11:57:34.945Z,39.35
2022-08-25T11:58:34.972Z,39.30
2022-08-25T11:59:34.981Z,39.26
2022-08-25T12:00:35.016Z,39.13
2022-08-25T12:01:35.026Z,39.22
2022-08-25T12:02:35.041Z,39.57
2022-08-25T12:03:35.060Z,39.97
2022-08-25T12:04:43.945Z,40.10
2022-08-25T12:05:35.153Z,40.25
2022-08-25T12:06:35.112Z,40.25
2022-08-25T12:07:35.129Z,40.18
2022-08-25T12:08:35.147Z,39.81
2022-08-25T12:09:35.164Z,39.32
2022-08-25T12:10:35.181Z,38.65
2022-08-25T12:11:35.196Z,38.32
2022-08-25T12:12:35.217Z,38.03
2022-08-25T12:13:35.232Z,37.89
2022-08-25T12:14:35.249Z,37.82
2022-08-25T12:15:35.270Z,37.41
2022-08-25T12:16:35.354Z,37.07
2022-08-25T12:17:35.305Z,36.80
2022-08-25T12:18:35.318Z,36.72
2022-08-25T12:19:35.335Z,36.76
2022-08-25T12:20:35.350Z,36.84
2022-08-25T12:21:35.370Z,36.71
2022-08-25T12:22:35.380Z,36.39
2022-08-25T12:23:35.396Z,36.16
2022-08-25T12:24:35.415Z,35.99
2022-08-25T12:25:35.432Z,35.87
2022-08-25T12:26:35.448Z,35.94
2022-08-25T12:27:35.467Z,35.90
2022-08-25T12:28:35.494Z,36.05
2022-08-25T12:29:35.494Z,36.01
2022-08-25T12:30:36.758Z,36.08
2022-08-25T12:31:35.522Z,36.25
2022-08-25T12:32:35.543Z,36.07
2022-08-25T12:33:35.552Z,35.82
2022-08-25T12:34:35.571Z,35.82
2022-08-25T12:35:35.587Z,35.85
2022-08-25T12:36:35.604Z,35.81
2022-08-25T12:37:35.616Z,35.75
2022-08-25T12:38:38.801Z,35.75
2022-08-25T12:39:35.643Z,35.77
2022-08-25T12:40:35.715Z,35.72
2022-08-25T12:41:35.676Z,35.65
2022-08-25T12:42:35.683Z,35.55
2022-08-25T12:43:37.564Z,35.52
2022-08-25T12:44:35.715Z,35.53
2022-08-25T12:45:35.826Z,35.45
2022-08-25T12:46:35.743Z,35.44
2022-08-25T12:47:35.761Z,35.43
2022-08-25T12:48:35.771Z,35.23
2022-08-25T12:49:35.779Z,35.11
2022-08-25T12:50:35.798Z,35.14
2022-08-25T12:51:35.812Z,35.22
2022-08-25T12:52:35.822Z,35.10
2022-08-25T12:53:35.837Z,35.09